sensor_id;sensor_type;location;lat;lon;timestamp;P1;durP1;ratioP1;P2;durP2;ratioP2
26502;SDS011;14177;51.520;6.764;2023-04-19T00:00:43;16.50;;;10.68;;
26502;SDS011;14177;51.520;6.764;2023-04-19T00:03:10;15.20;;;10.52;;
26502;SDS011;14177;51.520;6.764;2023-04-19T00:05:37;16.85;;;10.82;;
26502;SDS011;14177;51.520;6.764;2023-04-19T00:08:04;17.92;;;11.32;;
26502;SDS011;14177;51.520;6.764;2023-04-19T00:10:31;19.95;;;11.10;;
26502;SDS011;14177;51.520;6.764;2023-04-19T00:13:01;17.70;;;10.75;;
26502;SDS011;14177;51.520;6.764;2023-04-19T00:15:28;20.92;;;10.90;;
26502;SDS011;14177;51.520;6.764;2023-04-19T00:17:55;16.10;;;10.15;;
26502;SDS011;14177;51.520;6.764;2023-04-19T00:20:22;17.80;;;10.75;;
26502;SDS011;14177;51.520;6.764;2023-04-19T00:22:49;15.15;;;9.82;;
26502;SDS011;14177;51.520;6.764;2023-04-19T00:25:16;17.42;;;10.60;;
26502;SDS011;14177;51.520;6.764;2023-04-19T00:27:43;15.15;;;10.50;;
26502;SDS011;14177;51.520;6.764;2023-04-19T00:30:10;17.42;;;10.95;;
26502;SDS011;14177;51.520;6.764;2023-04-19T00:32:38;15.20;;;10.70;;
26502;SDS011;14177;51.520;6.764;2023-04-19T00:35:05;15.25;;;10.13;;
26502;SDS011;14177;51.520;6.764;2023-04-19T00:37:32;16.02;;;10.30;;
26502;SDS011;14177;51.520;6.764;2023-04-19T00:39:59;19.95;;;10.27;;
26502;SDS011;14177;51.520;6.764;2023-04-19T00:42:26;16.63;;;10.82;;
26502;SDS011;14177;51.520;6.764;2023-04-19T00:44:53;17.73;;;11.43;;
26502;SDS011;14177;51.520;6.764;2023-04-19T00:47:20;17.45;;;9.95;;
26502;SDS011;14177;51.520;6.764;2023-04-19T00:49:47;16.67;;;10.02;;
26502;SDS011;14177;51.520;6.764;2023-04-19T00:52:14;16.50;;;10.27;;
26502;SDS011;14177;51.520;6.764;2023-04-19T00:54:42;15.10;;;10.27;;
26502;SDS011;14177;51.520;6.764;2023-04-19T00:57:11;17.00;;;10.63;;
26502;SDS011;14177;51.520;6.764;2023-04-19T00:59:39;15.30;;;9.90;;
26502;SDS011;14177;51.520;6.764;2023-04-19T01:02:07;15.48;;;10.32;;
26502;SDS011;14177;51.520;6.764;2023-04-19T01:04:35;16.20;;;10.82;;
26502;SDS011;14177;51.520;6.764;2023-04-19T01:07:02;17.17;;;10.38;;
26502;SDS011;14177;51.520;6.764;2023-04-19T01:09:30;16.73;;;10.20;;
26502;SDS011;14177;51.520;6.764;2023-04-19T01:11:57;16.85;;;10.70;;
26502;SDS011;14177;51.520;6.764;2023-04-19T01:14:27;16.58;;;10.50;;
26502;SDS011;14177;51.520;6.764;2023-04-19T01:16:54;17.42;;;10.63;;
26502;SDS011;14177;51.520;6.764;2023-04-19T01:19:23;15.52;;;10.20;;
26502;SDS011;14177;51.520;6.764;2023-04-19T01:21:50;14.38;;;10.18;;
26502;SDS011;14177;51.520;6.764;2023-04-19T01:24:18;16.10;;;9.98;;
26502;SDS011;14177;51.520;6.764;2023-04-19T01:26:48;15.63;;;10.25;;
26502;SDS011;14177;51.520;6.764;2023-04-19T01:29:15;18.75;;;10.10;;
26502;SDS011;14177;51.520;6.764;2023-04-19T01:31:44;20.45;;;10.48;;
26502;SDS011;14177;51.520;6.764;2023-04-19T01:34:16;16.52;;;10.20;;
26502;SDS011;14177;51.520;6.764;2023-04-19T01:36:43;17.02;;;10.30;;
26502;SDS011;14177;51.520;6.764;2023-04-19T01:39:10;15.27;;;9.63;;
26502;SDS011;14177;51.520;6.764;2023-04-19T01:41:38;16.88;;;10.23;;
26502;SDS011;14177;51.520;6.764;2023-04-19T01:44:05;18.67;;;9.43;;
26502;SDS011;14177;51.520;6.764;2023-04-19T01:46:32;17.63;;;10.38;;
26502;SDS011;14177;51.520;6.764;2023-04-19T01:49:01;16.17;;;10.05;;
26502;SDS011;14177;51.520;6.764;2023-04-19T01:51:28;15.20;;;9.40;;
26502;SDS011;14177;51.520;6.764;2023-04-19T01:53:55;16.25;;;10.70;;
26502;SDS011;14177;51.520;6.764;2023-04-19T01:56:23;14.07;;;9.52;;
26502;SDS011;14177;51.520;6.764;2023-04-19T01:58:51;15.32;;;9.43;;
26502;SDS011;14177;51.520;6.764;2023-04-19T02:01:18;13.60;;;9.00;;
26502;SDS011;14177;51.520;6.764;2023-04-19T02:03:46;13.35;;;9.13;;
26502;SDS011;14177;51.520;6.764;2023-04-19T02:06:13;14.15;;;9.38;;
26502;SDS011;14177;51.520;6.764;2023-04-19T02:08:41;15.30;;;9.00;;
26502;SDS011;14177;51.520;6.764;2023-04-19T02:11:08;14.70;;;9.60;;
26502;SDS011;14177;51.520;6.764;2023-04-19T02:13:39;16.67;;;9.80;;
26502;SDS011;14177;51.520;6.764;2023-04-19T02:16:07;14.05;;;8.55;;
26502;SDS011;14177;51.520;6.764;2023-04-19T02:18:36;14.63;;;9.40;;
26502;SDS011;14177;51.520;6.764;2023-04-19T02:21:04;12.38;;;8.15;;
26502;SDS011;14177;51.520;6.764;2023-04-19T02:23:34;13.13;;;8.75;;
26502;SDS011;14177;51.520;6.764;2023-04-19T02:26:01;12.25;;;8.48;;
26502;SDS011;14177;51.520;6.764;2023-04-19T02:28:29;14.02;;;8.68;;
26502;SDS011;14177;51.520;6.764;2023-04-19T02:30:57;14.30;;;8.30;;
26502;SDS011;14177;51.520;6.764;2023-04-19T02:33:26;15.77;;;8.82;;
26502;SDS011;14177;51.520;6.764;2023-04-19T02:35:54;17.33;;;8.50;;
26502;SDS011;14177;51.520;6.764;2023-04-19T02:38:21;11.98;;;7.95;;
26502;SDS011;14177;51.520;6.764;2023-04-19T02:40:48;12.63;;;7.65;;
26502;SDS011;14177;51.520;6.764;2023-04-19T02:43:15;14.55;;;8.68;;
26502;SDS011;14177;51.520;6.764;2023-04-19T02:45:42;12.00;;;7.43;;
26502;SDS011;14177;51.520;6.764;2023-04-19T02:48:11;13.10;;;8.25;;
26502;SDS011;14177;51.520;6.764;2023-04-19T02:50:38;13.30;;;7.63;;
26502;SDS011;14177;51.520;6.764;2023-04-19T02:53:06;12.27;;;7.80;;
26502;SDS011;14177;51.520;6.764;2023-04-19T02:55:33;13.90;;;7.80;;
26502;SDS011;14177;51.520;6.764;2023-04-19T02:58:05;11.23;;;7.25;;
26502;SDS011;14177;51.520;6.764;2023-04-19T03:00:37;12.85;;;7.70;;
26502;SDS011;14177;51.520;6.764;2023-04-19T03:03:11;11.77;;;7.80;;
26502;SDS011;14177;51.520;6.764;2023-04-19T03:05:38;11.80;;;7.40;;
26502;SDS011;14177;51.520;6.764;2023-04-19T03:08:05;9.45;;;6.93;;
26502;SDS011;14177;51.520;6.764;2023-04-19T03:10:33;11.57;;;7.15;;
26502;SDS011;14177;51.520;6.764;2023-04-19T03:13:01;11.38;;;7.00;;
26502;SDS011;14177;51.520;6.764;2023-04-19T03:15:28;14.85;;;6.75;;
26502;SDS011;14177;51.520;6.764;2023-04-19T03:17:56;13.40;;;6.88;;
26502;SDS011;14177;51.520;6.764;2023-04-19T03:20:23;11.77;;;6.80;;
26502;SDS011;14177;51.520;6.764;2023-04-19T03:22:51;10.88;;;7.03;;
26502;SDS011;14177;51.520;6.764;2023-04-19T03:25:18;9.38;;;6.03;;
26502;SDS011;14177;51.520;6.764;2023-04-19T03:27:53;10.27;;;6.65;;
26502;SDS011;14177;51.520;6.764;2023-04-19T03:33:05;11.32;;;6.13;;
26502;SDS011;14177;51.520;6.764;2023-04-19T03:35:32;10.18;;;5.90;;
26502;SDS011;14177;51.520;6.764;2023-04-19T03:38:06;8.52;;;5.43;;
26502;SDS011;14177;51.520;6.764;2023-04-19T03:40:35;9.32;;;5.75;;
26502;SDS011;14177;51.520;6.764;2023-04-19T03:43:04;9.95;;;5.72;;
26502;SDS011;14177;51.520;6.764;2023-04-19T03:45:32;9.90;;;5.53;;
26502;SDS011;14177;51.520;6.764;2023-04-19T03:48:00;10.57;;;5.70;;
26502;SDS011;14177;51.520;6.764;2023-04-19T03:50:29;8.45;;;5.30;;
26502;SDS011;14177;51.520;6.764;2023-04-19T03:52:57;7.93;;;5.55;;
26502;SDS011;14177;51.520;6.764;2023-04-19T03:55:24;10.13;;;6.32;;
26502;SDS011;14177;51.520;6.764;2023-04-19T03:57:51;8.38;;;5.30;;
26502;SDS011;14177;51.520;6.764;2023-04-19T04:00:28;8.80;;;5.57;;
26502;SDS011;14177;51.520;6.764;2023-04-19T04:02:58;6.55;;;5.05;;
26502;SDS011;14177;51.520;6.764;2023-04-19T04:05:26;7.45;;;5.13;;
26502;SDS011;14177;51.520;6.764;2023-04-19T04:07:54;7.43;;;4.82;;
26502;SDS011;14177;51.520;6.764;2023-04-19T04:10:22;8.82;;;5.07;;
26502;SDS011;14177;51.520;6.764;2023-04-19T04:12:49;7.82;;;4.78;;
26502;SDS011;14177;51.520;6.764;2023-04-19T04:15:23;7.53;;;4.85;;
26502;SDS011;14177;51.520;6.764;2023-04-19T04:17:52;8.38;;;5.38;;
26502;SDS011;14177;51.520;6.764;2023-04-19T04:20:19;7.10;;;4.90;;
26502;SDS011;14177;51.520;6.764;2023-04-19T04:22:48;7.82;;;5.75;;
26502;SDS011;14177;51.520;6.764;2023-04-19T04:25:18;8.98;;;4.90;;
26502;SDS011;14177;51.520;6.764;2023-04-19T04:27:51;9.02;;;5.60;;
26502;SDS011;14177;51.520;6.764;2023-04-19T04:30:21;6.72;;;4.82;;
26502;SDS011;14177;51.520;6.764;2023-04-19T04:32:51;7.78;;;4.82;;
26502;SDS011;14177;51.520;6.764;2023-04-19T04:35:18;6.55;;;4.82;;
26502;SDS011;14177;51.520;6.764;2023-04-19T04:37:54;7.95;;;4.70;;
26502;SDS011;14177;51.520;6.764;2023-04-19T04:40:22;7.50;;;5.00;;
26502;SDS011;14177;51.520;6.764;2023-04-19T04:42:49;7.40;;;5.15;;
26502;SDS011;14177;51.520;6.764;2023-04-19T04:45:18;6.95;;;4.88;;
26502;SDS011;14177;51.520;6.764;2023-04-19T04:47:48;8.20;;;5.15;;
26502;SDS011;14177;51.520;6.764;2023-04-19T04:50:15;8.40;;;5.65;;
26502;SDS011;14177;51.520;6.764;2023-04-19T04:52:42;9.70;;;5.30;;
26502;SDS011;14177;51.520;6.764;2023-04-19T04:55:15;9.80;;;5.28;;
26502;SDS011;14177;51.520;6.764;2023-04-19T04:57:43;8.13;;;5.53;;
26502;SDS011;14177;51.520;6.764;2023-04-19T05:00:19;11.07;;;5.82;;
26502;SDS011;14177;51.520;6.764;2023-04-19T05:02:56;7.90;;;5.20;;
26502;SDS011;14177;51.520;6.764;2023-04-19T05:05:25;10.85;;;5.95;;
26502;SDS011;14177;51.520;6.764;2023-04-19T05:07:54;8.63;;;5.32;;
26502;SDS011;14177;51.520;6.764;2023-04-19T05:10:21;9.80;;;5.30;;
26502;SDS011;14177;51.520;6.764;2023-04-19T05:12:48;8.00;;;5.20;;
26502;SDS011;14177;51.520;6.764;2023-04-19T05:15:15;7.57;;;5.13;;
26502;SDS011;14177;51.520;6.764;2023-04-19T05:17:47;8.70;;;5.22;;
26502;SDS011;14177;51.520;6.764;2023-04-19T05:20:14;7.30;;;5.22;;
26502;SDS011;14177;51.520;6.764;2023-04-19T05:22:42;10.45;;;5.68;;
26502;SDS011;14177;51.520;6.764;2023-04-19T05:25:10;9.50;;;5.32;;
26502;SDS011;14177;51.520;6.764;2023-04-19T05:27:37;10.02;;;5.80;;
26502;SDS011;14177;51.520;6.764;2023-04-19T05:30:05;9.40;;;5.47;;
26502;SDS011;14177;51.520;6.764;2023-04-19T05:32:37;7.82;;;5.10;;
26502;SDS011;14177;51.520;6.764;2023-04-19T05:35:07;8.88;;;5.28;;
26502;SDS011;14177;51.520;6.764;2023-04-19T05:37:36;9.63;;;5.53;;
26502;SDS011;14177;51.520;6.764;2023-04-19T05:40:04;10.85;;;5.65;;
26502;SDS011;14177;51.520;6.764;2023-04-19T05:42:35;10.82;;;5.40;;
26502;SDS011;14177;51.520;6.764;2023-04-19T05:45:04;10.18;;;5.32;;
26502;SDS011;14177;51.520;6.764;2023-04-19T05:47:32;8.60;;;5.47;;
26502;SDS011;14177;51.520;6.764;2023-04-19T05:50:34;9.40;;;5.25;;
26502;SDS011;14177;51.520;6.764;2023-04-19T05:53:31;7.95;;;5.30;;
26502;SDS011;14177;51.520;6.764;2023-04-19T05:55:59;8.68;;;5.30;;
26502;SDS011;14177;51.520;6.764;2023-04-19T05:58:26;9.80;;;5.65;;
26502;SDS011;14177;51.520;6.764;2023-04-19T06:00:53;8.60;;;5.07;;
26502;SDS011;14177;51.520;6.764;2023-04-19T06:03:21;8.95;;;5.28;;
26502;SDS011;14177;51.520;6.764;2023-04-19T06:05:49;9.55;;;4.97;;
26502;SDS011;14177;51.520;6.764;2023-04-19T06:08:16;7.63;;;4.72;;
26502;SDS011;14177;51.520;6.764;2023-04-19T06:10:44;7.68;;;5.35;;
26502;SDS011;14177;51.520;6.764;2023-04-19T06:13:22;9.95;;;4.60;;
26502;SDS011;14177;51.520;6.764;2023-04-19T06:15:50;9.45;;;4.75;;
26502;SDS011;14177;51.520;6.764;2023-04-19T06:18:18;11.23;;;4.78;;
26502;SDS011;14177;51.520;6.764;2023-04-19T06:20:45;11.60;;;5.18;;
26502;SDS011;14177;51.520;6.764;2023-04-19T06:23:12;6.32;;;4.30;;
26502;SDS011;14177;51.520;6.764;2023-04-19T06:25:40;11.35;;;5.07;;
26502;SDS011;14177;51.520;6.764;2023-04-19T06:28:07;14.63;;;6.28;;
26502;SDS011;14177;51.520;6.764;2023-04-19T06:30:34;10.52;;;5.18;;
26502;SDS011;14177;51.520;6.764;2023-04-19T06:33:01;9.10;;;4.63;;
26502;SDS011;14177;51.520;6.764;2023-04-19T06:35:28;8.38;;;4.93;;
26502;SDS011;14177;51.520;6.764;2023-04-19T06:37:57;7.90;;;4.95;;
26502;SDS011;14177;51.520;6.764;2023-04-19T06:40:27;8.10;;;4.60;;
26502;SDS011;14177;51.520;6.764;2023-04-19T06:42:54;6.93;;;4.32;;
26502;SDS011;14177;51.520;6.764;2023-04-19T06:45:21;10.43;;;4.85;;
26502;SDS011;14177;51.520;6.764;2023-04-19T06:47:48;6.57;;;4.20;;
26502;SDS011;14177;51.520;6.764;2023-04-19T06:50:16;8.02;;;4.55;;
26502;SDS011;14177;51.520;6.764;2023-04-19T06:52:43;6.55;;;4.30;;
26502;SDS011;14177;51.520;6.764;2023-04-19T06:55:10;6.88;;;4.82;;
26502;SDS011;14177;51.520;6.764;2023-04-19T06:57:37;6.47;;;4.05;;
26502;SDS011;14177;51.520;6.764;2023-04-19T07:00:04;8.30;;;4.75;;
26502;SDS011;14177;51.520;6.764;2023-04-19T07:02:33;9.27;;;4.10;;
26502;SDS011;14177;51.520;6.764;2023-04-19T07:05:00;7.53;;;4.43;;
26502;SDS011;14177;51.520;6.764;2023-04-19T07:07:27;7.05;;;4.18;;
26502;SDS011;14177;51.520;6.764;2023-04-19T07:09:54;6.97;;;4.15;;
26502;SDS011;14177;51.520;6.764;2023-04-19T07:12:21;7.05;;;4.07;;
26502;SDS011;14177;51.520;6.764;2023-04-19T07:14:48;8.45;;;4.03;;
26502;SDS011;14177;51.520;6.764;2023-04-19T07:17:15;8.18;;;4.03;;
26502;SDS011;14177;51.520;6.764;2023-04-19T07:19:46;7.97;;;3.70;;
26502;SDS011;14177;51.520;6.764;2023-04-19T07:22:14;8.45;;;4.45;;
26502;SDS011;14177;51.520;6.764;2023-04-19T07:24:41;5.30;;;3.30;;
26502;SDS011;14177;51.520;6.764;2023-04-19T07:27:09;8.38;;;3.83;;
26502;SDS011;14177;51.520;6.764;2023-04-19T07:29:37;7.43;;;4.05;;
26502;SDS011;14177;51.520;6.764;2023-04-19T07:32:06;6.25;;;3.70;;
26502;SDS011;14177;51.520;6.764;2023-04-19T07:34:33;8.50;;;3.72;;
26502;SDS011;14177;51.520;6.764;2023-04-19T07:37:02;8.75;;;3.85;;
26502;SDS011;14177;51.520;6.764;2023-04-19T07:39:29;10.30;;;3.95;;
26502;SDS011;14177;51.520;6.764;2023-04-19T07:41:56;5.93;;;3.53;;
26502;SDS011;14177;51.520;6.764;2023-04-19T07:44:23;6.88;;;3.30;;
26502;SDS011;14177;51.520;6.764;2023-04-19T07:46:50;5.55;;;3.17;;
26502;SDS011;14177;51.520;6.764;2023-04-19T07:49:18;5.18;;;3.58;;
26502;SDS011;14177;51.520;6.764;2023-04-19T07:51:46;5.75;;;3.60;;
26502;SDS011;14177;51.520;6.764;2023-04-19T07:54:13;6.50;;;3.40;;
26502;SDS011;14177;51.520;6.764;2023-04-19T07:56:42;6.00;;;3.30;;
26502;SDS011;14177;51.520;6.764;2023-04-19T07:59:09;7.03;;;3.35;;
26502;SDS011;14177;51.520;6.764;2023-04-19T08:01:36;5.20;;;3.03;;
26502;SDS011;14177;51.520;6.764;2023-04-19T08:04:03;7.28;;;3.13;;
26502;SDS011;14177;51.520;6.764;2023-04-19T08:06:31;7.82;;;3.40;;
26502;SDS011;14177;51.520;6.764;2023-04-19T08:08:58;5.45;;;3.00;;
26502;SDS011;14177;51.520;6.764;2023-04-19T08:11:25;7.50;;;3.30;;
26502;SDS011;14177;51.520;6.764;2023-04-19T08:13:52;6.75;;;3.30;;
26502;SDS011;14177;51.520;6.764;2023-04-19T08:16:39;6.60;;;3.20;;
26502;SDS011;14177;51.520;6.764;2023-04-19T08:19:26;5.32;;;3.08;;
26502;SDS011;14177;51.520;6.764;2023-04-19T08:21:53;6.18;;;3.10;;
26502;SDS011;14177;51.520;6.764;2023-04-19T08:24:20;5.85;;;2.78;;
26502;SDS011;14177;51.520;6.764;2023-04-19T08:26:47;4.00;;;2.60;;
26502;SDS011;14177;51.520;6.764;2023-04-19T08:29:19;5.30;;;2.35;;
26502;SDS011;14177;51.520;6.764;2023-04-19T08:31:47;4.78;;;2.63;;
26502;SDS011;14177;51.520;6.764;2023-04-19T08:34:14;3.42;;;2.10;;
26502;SDS011;14177;51.520;6.764;2023-04-19T08:36:42;5.05;;;2.60;;
26502;SDS011;14177;51.520;6.764;2023-04-19T08:39:17;4.75;;;2.30;;
26502;SDS011;14177;51.520;6.764;2023-04-19T08:42:07;6.07;;;2.45;;
26502;SDS011;14177;51.520;6.764;2023-04-19T08:44:55;3.58;;;2.60;;
26502;SDS011;14177;51.520;6.764;2023-04-19T08:47:47;6.43;;;3.25;;
26502;SDS011;14177;51.520;6.764;2023-04-19T08:50:26;3.25;;;2.20;;
26502;SDS011;14177;51.520;6.764;2023-04-19T08:53:06;4.20;;;2.40;;
26502;SDS011;14177;51.520;6.764;2023-04-19T08:55:40;4.18;;;2.25;;
26502;SDS011;14177;51.520;6.764;2023-04-19T08:58:28;6.75;;;2.65;;
26502;SDS011;14177;51.520;6.764;2023-04-19T09:01:18;6.05;;;2.65;;
26502;SDS011;14177;51.520;6.764;2023-04-19T09:04:01;5.43;;;2.55;;
26502;SDS011;14177;51.520;6.764;2023-04-19T09:06:53;5.15;;;2.17;;
26502;SDS011;14177;51.520;6.764;2023-04-19T09:09:22;4.43;;;2.63;;
26502;SDS011;14177;51.520;6.764;2023-04-19T09:11:55;4.63;;;2.40;;
26502;SDS011;14177;51.520;6.764;2023-04-19T09:14:24;4.82;;;2.28;;
26502;SDS011;14177;51.520;6.764;2023-04-19T09:16:53;4.57;;;2.00;;
26502;SDS011;14177;51.520;6.764;2023-04-19T09:19:45;3.50;;;2.17;;
26502;SDS011;14177;51.520;6.764;2023-04-19T09:22:15;3.17;;;1.65;;
26502;SDS011;14177;51.520;6.764;2023-04-19T09:24:44;5.85;;;2.17;;
26502;SDS011;14177;51.520;6.764;2023-04-19T09:27:32;3.40;;;2.03;;
26502;SDS011;14177;51.520;6.764;2023-04-19T09:30:02;3.80;;;1.80;;
26502;SDS011;14177;51.520;6.764;2023-04-19T09:32:47;5.68;;;1.70;;
26502;SDS011;14177;51.520;6.764;2023-04-19T09:35:15;3.50;;;1.80;;
26502;SDS011;14177;51.520;6.764;2023-04-19T09:37:42;2.28;;;1.52;;
26502;SDS011;14177;51.520;6.764;2023-04-19T09:40:32;4.75;;;1.67;;
26502;SDS011;14177;51.520;6.764;2023-04-19T09:42:59;2.55;;;1.77;;
26502;SDS011;14177;51.520;6.764;2023-04-19T09:45:48;3.67;;;1.65;;
26502;SDS011;14177;51.520;6.764;2023-04-19T09:48:16;3.97;;;1.33;;
26502;SDS011;14177;51.520;6.764;2023-04-19T09:50:53;2.72;;;1.52;;
26502;SDS011;14177;51.520;6.764;2023-04-19T09:53:35;3.75;;;1.70;;
26502;SDS011;14177;51.520;6.764;2023-04-19T09:56:06;4.47;;;1.92;;
26502;SDS011;14177;51.520;6.764;2023-04-19T09:58:37;6.95;;;2.33;;
26502;SDS011;14177;51.520;6.764;2023-04-19T10:01:19;2.58;;;1.73;;
26502;SDS011;14177;51.520;6.764;2023-04-19T10:03:48;3.20;;;1.80;;
26502;SDS011;14177;51.520;6.764;2023-04-19T10:06:17;2.50;;;1.73;;
26502;SDS011;14177;51.520;6.764;2023-04-19T10:08:48;3.20;;;1.80;;
26502;SDS011;14177;51.520;6.764;2023-04-19T10:11:19;2.53;;;1.70;;
26502;SDS011;14177;51.520;6.764;2023-04-19T10:13:47;2.78;;;1.65;;
26502;SDS011;14177;51.520;6.764;2023-04-19T10:16:19;3.13;;;1.75;;
26502;SDS011;14177;51.520;6.764;2023-04-19T10:18:49;3.67;;;1.90;;
26502;SDS011;14177;51.520;6.764;2023-04-19T10:21:18;8.15;;;2.60;;
26502;SDS011;14177;51.520;6.764;2023-04-19T10:23:46;2.50;;;1.90;;
26502;SDS011;14177;51.520;6.764;2023-04-19T10:26:14;6.72;;;2.00;;
26502;SDS011;14177;51.520;6.764;2023-04-19T10:28:41;2.50;;;1.70;;
26502;SDS011;14177;51.520;6.764;2023-04-19T10:31:10;3.40;;;1.80;;
26502;SDS011;14177;51.520;6.764;2023-04-19T10:33:39;2.60;;;1.70;;
26502;SDS011;14177;51.520;6.764;2023-04-19T10:36:07;5.53;;;1.90;;
26502;SDS011;14177;51.520;6.764;2023-04-19T10:38:40;6.78;;;1.77;;
26502;SDS011;14177;51.520;6.764;2023-04-19T10:41:17;3.22;;;1.83;;
26502;SDS011;14177;51.520;6.764;2023-04-19T10:43:46;4.65;;;2.25;;
26502;SDS011;14177;51.520;6.764;2023-04-19T10:46:37;3.20;;;2.20;;
26502;SDS011;14177;51.520;6.764;2023-04-19T10:49:07;8.82;;;2.00;;
26502;SDS011;14177;51.520;6.764;2023-04-19T10:51:36;3.15;;;2.22;;
26502;SDS011;14177;51.520;6.764;2023-04-19T10:59:35;3.40;;;2.25;;
26502;SDS011;14177;51.520;6.764;2023-04-19T11:07:17;6.78;;;2.05;;
26502;SDS011;14177;51.520;6.764;2023-04-19T11:09:48;3.95;;;2.28;;
26502;SDS011;14177;51.520;6.764;2023-04-19T11:12:17;6.68;;;1.88;;
26502;SDS011;14177;51.520;6.764;2023-04-19T11:14:46;3.97;;;2.08;;
26502;SDS011;14177;51.520;6.764;2023-04-19T11:17:18;2.47;;;1.73;;
26502;SDS011;14177;51.520;6.764;2023-04-19T11:19:53;2.30;;;1.60;;
26502;SDS011;14177;51.520;6.764;2023-04-19T11:25:13;3.72;;;2.38;;
26502;SDS011;14177;51.520;6.764;2023-04-19T11:27:47;4.25;;;2.30;;
26502;SDS011;14177;51.520;6.764;2023-04-19T11:30:17;2.78;;;1.80;;
26502;SDS011;14177;51.520;6.764;2023-04-19T11:32:49;2.80;;;1.63;;
26502;SDS011;14177;51.520;6.764;2023-04-19T11:35:21;5.43;;;2.33;;
26502;SDS011;14177;51.520;6.764;2023-04-19T11:37:51;5.95;;;2.33;;
26502;SDS011;14177;51.520;6.764;2023-04-19T11:40:21;6.78;;;2.22;;
26502;SDS011;14177;51.520;6.764;2023-04-19T11:42:55;4.20;;;2.28;;
26502;SDS011;14177;51.520;6.764;2023-04-19T11:48:03;5.70;;;2.20;;
26502;SDS011;14177;51.520;6.764;2023-04-19T11:50:33;4.32;;;2.25;;
26502;SDS011;14177;51.520;6.764;2023-04-19T11:53:13;5.13;;;2.22;;
26502;SDS011;14177;51.520;6.764;2023-04-19T11:55:46;5.88;;;2.40;;
26502;SDS011;14177;51.520;6.764;2023-04-19T11:58:30;3.33;;;2.03;;
26502;SDS011;14177;51.520;6.764;2023-04-19T12:03:54;4.38;;;2.28;;
26502;SDS011;14177;51.520;6.764;2023-04-19T12:06:27;7.25;;;2.25;;
26502;SDS011;14177;51.520;6.764;2023-04-19T12:08:57;4.03;;;2.30;;
26502;SDS011;14177;51.520;6.764;2023-04-19T12:11:25;3.45;;;2.20;;
26502;SDS011;14177;51.520;6.764;2023-04-19T12:16:38;4.25;;;2.35;;
26502;SDS011;14177;51.520;6.764;2023-04-19T12:19:13;4.40;;;2.30;;
26502;SDS011;14177;51.520;6.764;2023-04-19T12:21:46;7.47;;;2.63;;
26502;SDS011;14177;51.520;6.764;2023-04-19T12:24:14;3.80;;;2.30;;
26502;SDS011;14177;51.520;6.764;2023-04-19T12:26:51;6.93;;;2.40;;
26502;SDS011;14177;51.520;6.764;2023-04-19T12:29:25;3.97;;;2.33;;
26502;SDS011;14177;51.520;6.764;2023-04-19T12:31:52;4.63;;;2.30;;
26502;SDS011;14177;51.520;6.764;2023-04-19T12:34:20;6.25;;;2.47;;
26502;SDS011;14177;51.520;6.764;2023-04-19T12:36:47;7.55;;;2.80;;
26502;SDS011;14177;51.520;6.764;2023-04-19T12:39:14;3.17;;;2.58;;
26502;SDS011;14177;51.520;6.764;2023-04-19T12:41:41;4.35;;;2.58;;
26502;SDS011;14177;51.520;6.764;2023-04-19T12:44:08;3.15;;;2.30;;
26502;SDS011;14177;51.520;6.764;2023-04-19T12:46:35;7.22;;;2.42;;
26502;SDS011;14177;51.520;6.764;2023-04-19T12:49:02;4.38;;;2.42;;
26502;SDS011;14177;51.520;6.764;2023-04-19T12:51:29;3.38;;;2.08;;
26502;SDS011;14177;51.520;6.764;2023-04-19T12:53:57;6.65;;;2.50;;
26502;SDS011;14177;51.520;6.764;2023-04-19T12:56:24;4.40;;;2.30;;
26502;SDS011;14177;51.520;6.764;2023-04-19T12:58:52;4.05;;;2.42;;
26502;SDS011;14177;51.520;6.764;2023-04-19T13:01:19;4.07;;;2.50;;
26502;SDS011;14177;51.520;6.764;2023-04-19T13:03:46;3.05;;;2.20;;
26502;SDS011;14177;51.520;6.764;2023-04-19T13:06:13;4.75;;;2.40;;
26502;SDS011;14177;51.520;6.764;2023-04-19T13:08:42;4.82;;;2.63;;
26502;SDS011;14177;51.520;6.764;2023-04-19T13:11:13;2.65;;;2.08;;
26502;SDS011;14177;51.520;6.764;2023-04-19T13:13:41;5.50;;;2.55;;
26502;SDS011;14177;51.520;6.764;2023-04-19T13:16:08;6.63;;;2.60;;
26502;SDS011;14177;51.520;6.764;2023-04-19T13:18:36;3.53;;;2.50;;
26502;SDS011;14177;51.520;6.764;2023-04-19T13:21:03;4.35;;;2.25;;
26502;SDS011;14177;51.520;6.764;2023-04-19T13:23:33;5.47;;;3.10;;
26502;SDS011;14177;51.520;6.764;2023-04-19T13:26:00;3.30;;;2.72;;
26502;SDS011;14177;51.520;6.764;2023-04-19T13:28:27;5.97;;;2.83;;
26502;SDS011;14177;51.520;6.764;2023-04-19T13:30:55;7.25;;;2.75;;
26502;SDS011;14177;51.520;6.764;2023-04-19T13:33:22;5.13;;;2.90;;
26502;SDS011;14177;51.520;6.764;2023-04-19T13:35:51;3.47;;;2.75;;
26502;SDS011;14177;51.520;6.764;2023-04-19T13:38:18;4.30;;;3.00;;
26502;SDS011;14177;51.520;6.764;2023-04-19T13:40:45;3.63;;;2.45;;
26502;SDS011;14177;51.520;6.764;2023-04-19T13:43:12;4.88;;;2.53;;
26502;SDS011;14177;51.520;6.764;2023-04-19T13:45:39;5.70;;;2.53;;
26502;SDS011;14177;51.520;6.764;2023-04-19T13:48:05;5.03;;;2.67;;
26502;SDS011;14177;51.520;6.764;2023-04-19T13:50:33;4.70;;;2.78;;
26502;SDS011;14177;51.520;6.764;2023-04-19T13:53:00;3.88;;;2.53;;
26502;SDS011;14177;51.520;6.764;2023-04-19T13:55:27;4.07;;;2.30;;
26502;SDS011;14177;51.520;6.764;2023-04-19T13:57:54;6.07;;;2.60;;
26502;SDS011;14177;51.520;6.764;2023-04-19T14:00:21;4.82;;;2.80;;
26502;SDS011;14177;51.520;6.764;2023-04-19T14:02:49;4.85;;;2.35;;
26502;SDS011;14177;51.520;6.764;2023-04-19T14:05:18;5.18;;;2.17;;
26502;SDS011;14177;51.520;6.764;2023-04-19T14:07:45;7.00;;;2.17;;
26502;SDS011;14177;51.520;6.764;2023-04-19T14:10:12;4.50;;;2.30;;
26502;SDS011;14177;51.520;6.764;2023-04-19T14:12:39;6.95;;;2.42;;
26502;SDS011;14177;51.520;6.764;2023-04-19T14:15:06;4.25;;;2.60;;
26502;SDS011;14177;51.520;6.764;2023-04-19T14:17:34;5.40;;;2.72;;
26502;SDS011;14177;51.520;6.764;2023-04-19T14:20:01;3.55;;;2.47;;
26502;SDS011;14177;51.520;6.764;2023-04-19T14:22:32;7.88;;;3.45;;
26502;SDS011;14177;51.520;6.764;2023-04-19T14:25:01;5.65;;;2.28;;
26502;SDS011;14177;51.520;6.764;2023-04-19T14:27:29;5.35;;;2.10;;
26502;SDS011;14177;51.520;6.764;2023-04-19T14:29:56;4.55;;;2.72;;
26502;SDS011;14177;51.520;6.764;2023-04-19T14:32:23;4.78;;;2.92;;
26502;SDS011;14177;51.520;6.764;2023-04-19T14:34:53;3.13;;;2.58;;
26502;SDS011;14177;51.520;6.764;2023-04-19T14:37:22;4.95;;;2.22;;
26502;SDS011;14177;51.520;6.764;2023-04-19T14:39:49;4.15;;;2.20;;
26502;SDS011;14177;51.520;6.764;2023-04-19T14:42:17;3.15;;;2.25;;
26502;SDS011;14177;51.520;6.764;2023-04-19T14:44:49;5.43;;;2.40;;
26502;SDS011;14177;51.520;6.764;2023-04-19T14:47:17;3.08;;;2.20;;
26502;SDS011;14177;51.520;6.764;2023-04-19T14:49:45;3.33;;;2.42;;
26502;SDS011;14177;51.520;6.764;2023-04-19T14:52:12;4.15;;;2.28;;
26502;SDS011;14177;51.520;6.764;2023-04-19T14:54:39;5.00;;;2.47;;
26502;SDS011;14177;51.520;6.764;2023-04-19T14:57:07;3.45;;;2.47;;
26502;SDS011;14177;51.520;6.764;2023-04-19T14:59:34;8.23;;;2.28;;
26502;SDS011;14177;51.520;6.764;2023-04-19T15:02:01;3.83;;;2.28;;
26502;SDS011;14177;51.520;6.764;2023-04-19T15:04:29;4.63;;;2.30;;
26502;SDS011;14177;51.520;6.764;2023-04-19T15:06:59;4.97;;;2.40;;
26502;SDS011;14177;51.520;6.764;2023-04-19T15:09:26;3.17;;;2.17;;
26502;SDS011;14177;51.520;6.764;2023-04-19T15:11:53;5.20;;;2.40;;
26502;SDS011;14177;51.520;6.764;2023-04-19T15:14:20;5.38;;;1.90;;
26502;SDS011;14177;51.520;6.764;2023-04-19T15:16:47;4.93;;;2.20;;
26502;SDS011;14177;51.520;6.764;2023-04-19T15:19:14;3.20;;;2.30;;
26502;SDS011;14177;51.520;6.764;2023-04-19T15:21:41;3.47;;;2.10;;